Time;durP1;ratioP1;P1;durP2;ratioP2;P2;SDS_P1;SDS_P2;PMS_P1;PMS_P2;Temp;Humidity;BMP_temperature;BMP_pressure;BME280_temperature;BME280_humidity;BME280_pressure;Samples;Min_cycle;Max_cycle;Signal;HPM_P1;HPM_P2
2020/12/07 00:01:08;;;;;;;40.10;27.60;;;5.50;83.80;;;;;;5114465;28;20027;-79
2020/12/07 00:03:34;;;;;;;36.53;26.20;;;5.50;83.90;;;;;;5114188;28;20031;-80
2020/12/07 00:06:00;;;;;;;41.40;27.47;;;5.40;83.70;;;;;;5088083;28;20031;-79
2020/12/07 00:08:26;;;;;;;41.67;28.57;;;5.40;84.00;;;;;;5092794;28;20028;-79
2020/12/07 00:10:51;;;;;;;43.50;28.27;;;5.40;84.10;;;;;;5115426;28;20031;-81
2020/12/07 00:13:17;;;;;;;38.57;26.87;;;5.40;84.20;;;;;;5099181;28;20483;-81
2020/12/07 00:15:44;;;;;;;42.33;28.10;;;5.40;84.20;;;;;;5124965;28;20032;-81
2020/12/07 00:18:09;;;;;;;40.60;27.30;;;5.50;84.30;;;;;;5133261;28;20024;-80
2020/12/07 00:20:35;;;;;;;39.30;26.30;;;5.50;84.40;;;;;;5116592;28;20115;-80
2020/12/07 00:23:01;;;;;;;38.43;26.83;;;5.50;84.50;;;;;;5133197;28;20036;-83
2020/12/07 00:25:27;;;;;;;40.57;27.70;;;5.40;84.50;;;;;;5115354;28;20064;-78
2020/12/07 00:27:53;;;;;;;38.83;26.57;;;5.40;84.50;;;;;;5087019;28;20123;-83
2020/12/07 00:30:18;;;;;;;39.40;27.50;;;5.40;84.50;;;;;;5115853;28;20047;-82
2020/12/07 00:32:44;;;;;;;38.43;26.70;;;5.40;84.60;;;;;;5113552;28;20028;-82
2020/12/07 00:35:10;;;;;;;42.80;27.43;;;5.40;84.60;;;;;;5113846;28;20395;-82
2020/12/07 00:37:35;;;;;;;40.77;27.13;;;5.40;84.70;;;;;;5075910;28;20126;-81
2020/12/07 00:40:01;;;;;;;40.40;26.50;;;5.40;84.70;;;;;;5111447;28;20032;-81
2020/12/07 00:42:27;;;;;;;37.37;26.60;;;5.50;84.80;;;;;;5110713;28;20032;-77
2020/12/07 00:44:52;;;;;;;41.07;26.13;;;5.50;84.70;;;;;;5092515;28;20035;-79
2020/12/07 00:47:18;;;;;;;36.57;25.40;;;5.50;84.70;;;;;;5074083;28;20028;-79
2020/12/07 00:49:44;;;;;;;37.83;26.27;;;5.50;84.70;;;;;;5077778;28;20035;-79
2020/12/07 00:52:09;;;;;;;38.23;25.90;;;5.50;84.70;;;;;;5109333;28;20514;-79
2020/12/07 00:54:35;;;;;;;39.40;26.97;;;5.40;84.50;;;;;;5108409;28;20459;-79
2020/12/07 00:57:02;;;;;;;39.00;25.37;;;5.40;84.70;;;;;;5109892;28;20054;-79
2020/12/07 00:59:28;;;;;;;38.63;27.10;;;5.40;84.90;;;;;;5110484;28;20033;-77
2020/12/07 01:01:55;;;;;;;39.23;27.20;;;5.40;84.90;;;;;;5109097;28;20043;-78
2020/12/07 01:04:21;;;;;;;37.83;26.00;;;5.40;85.30;;;;;;5110182;28;20391;-80
2020/12/07 01:06:47;;;;;;;41.07;28.17;;;5.40;84.80;;;;;;5091929;28;20030;-80
2020/12/07 01:09:18;;;;;;;41.70;28.73;;;5.40;84.80;;;;;;5113133;28;20028;-80
2020/12/07 01:11:45;;;;;;;43.60;28.70;;;5.40;84.80;;;;;;5111348;27;20115;-79
2020/12/07 01:14:12;;;;;;;43.27;29.87;;;5.40;85.00;;;;;;5111494;28;20027;-80
2020/12/07 01:16:38;;;;;;;40.50;29.10;;;5.30;84.80;;;;;;5110356;28;20434;-80
2020/12/07 01:19:06;;;;;;;44.53;29.87;;;5.30;84.80;;;;;;5109902;28;20439;-80
2020/12/07 01:21:32;;;;;;;48.50;31.20;;;5.30;85.00;;;;;;5109905;28;20051;-79
2020/12/07 01:23:59;;;;;;;48.20;31.00;;;5.30;85.10;;;;;;5109796;28;20498;-80
2020/12/07 01:26:25;;;;;;;43.57;29.97;;;5.40;85.10;;;;;;5109718;28;20058;-79
2020/12/07 01:28:50;;;;;;;43.60;30.10;;;5.30;85.10;;;;;;5089180;28;20056;-80
2020/12/07 01:31:17;;;;;;;48.27;33.33;;;5.30;85.10;;;;;;5092805;28;21286;-79
2020/12/07 01:33:44;;;;;;;45.90;32.10;;;5.30;85.10;;;;;;5109454;28;20039;-79
2020/12/07 01:36:09;;;;;;;51.47;34.70;;;5.20;85.10;;;;;;5108507;28;20050;-79
2020/12/07 01:38:35;;;;;;;50.13;34.13;;;5.30;85.10;;;;;;5107739;28;20035;-79
2020/12/07 01:41:00;;;;;;;53.67;34.27;;;5.20;85.30;;;;;;5110071;28;20113;-79
2020/12/07 01:43:26;;;;;;;51.57;35.17;;;5.20;85.30;;;;;;5109089;28;20031;-80
2020/12/07 01:45:51;;;;;;;54.10;36.30;;;5.20;85.40;;;;;;5091552;28;20129;-79
2020/12/07 01:48:17;;;;;;;55.13;35.70;;;5.30;85.20;;;;;;5093143;28;20024;-80
2020/12/07 01:50:43;;;;;;;53.13;36.60;;;5.20;85.10;;;;;;5108553;28;20044;-79
2020/12/07 01:53:10;;;;;;;57.07;38.93;;;5.20;85.20;;;;;;5088471;28;20032;-79
2020/12/07 01:55:37;;;;;;;57.97;39.57;;;5.20;85.20;;;;;;5090437;28;20115;-79
2020/12/07 01:58:03;;;;;;;59.60;38.37;;;5.20;85.10;;;;;;5127996;28;20173;-79
2020/12/07 02:00:29;;;;;;;59.90;38.97;;;5.20;85.20;;;;;;5095633;28;20118;-79
2020/12/07 02:02:54;;;;;;;61.80;40.97;;;5.20;85.20;;;;;;5096160;28;20057;-79
2020/12/07 02:05:22;;;;;;;63.63;41.37;;;5.20;85.30;;;;;;5095678;28;20417;-79
2020/12/07 02:07:49;;;;;;;62.43;41.70;;;5.20;85.30;;;;;;5092002;28;20027;-79
2020/12/07 02:10:14;;;;;;;62.77;41.27;;;5.20;85.30;;;;;;5093830;28;20382;-78
2020/12/07 02:12:40;;;;;;;65.53;43.03;;;5.20;85.30;;;;;;5095062;28;20126;-79
2020/12/07 02:15:06;;;;;;;65.27;41.63;;;5.20;85.30;;;;;;5131942;28;20039;-79
2020/12/07 02:17:31;;;;;;;67.90;44.90;;;5.10;85.30;;;;;;5112997;28;20066;-78
2020/12/07 02:19:57;;;;;;;62.83;43.00;;;5.10;85.30;;;;;;5095733;28;20027;-79
2020/12/07 02:22:22;;;;;;;68.73;44.60;;;5.00;85.30;;;;;;5111254;28;20031;-79
2020/12/07 02:24:48;;;;;;;68.00;44.20;;;5.00;85.40;;;;;;5112712;28;20107;-78
2020/12/07 02:27:14;;;;;;;64.67;42.73;;;5.10;85.50;;;;;;5112032;28;20128;-78
2020/12/07 02:29:39;;;;;;;62.43;41.53;;;5.00;85.40;;;;;;5112496;28;20055;-79
2020/12/07 02:32:13;;;;;;;69.77;45.33;;;5.10;85.50;;;;;;5113339;28;20023;-79
2020/12/07 02:34:40;;;;;;;68.53;44.43;;;5.10;85.50;;;;;;5094930;28;20440;-78
2020/12/07 02:37:06;;;;;;;62.77;42.67;;;5.10;85.50;;;;;;5098586;28;20032;-78
2020/12/07 02:39:32;;;;;;;58.67;40.73;;;5.10;85.40;;;;;;5093275;28;20083;-78
2020/12/07 02:41:57;;;;;;;62.47;41.97;;;5.10;85.30;;;;;;5082181;28;20038;-78
2020/12/07 02:44:23;;;;;;;60.73;40.90;;;5.10;85.40;;;;;;5113703;27;20543;-78
2020/12/07 02:46:49;;;;;;;58.57;39.60;;;5.00;85.40;;;;;;5114709;27;20382;-78
2020/12/07 02:49:14;;;;;;;55.63;39.07;;;5.00;85.40;;;;;;5117254;27;20087;-78
2020/12/07 02:51:40;;;;;;;58.60;39.83;;;5.00;85.40;;;;;;5114119;27;20042;-78
2020/12/07 02:54:06;;;;;;;56.70;37.33;;;5.00;85.40;;;;;;5116362;27;20028;-79
2020/12/07 02:56:31;;;;;;;54.57;38.33;;;5.00;85.60;;;;;;5099412;27;20047;-79
2020/12/07 02:58:57;;;;;;;54.97;36.77;;;5.00;85.60;;;;;;5135121;27;20672;-78
2020/12/07 03:01:22;;;;;;;59.37;39.07;;;4.90;85.60;;;;;;5116071;27;20042;-78
2020/12/07 03:03:48;;;;;;;55.23;37.37;;;4.90;85.70;;;;;;5110263;27;20059;-79
2020/12/07 03:06:14;;;;;;;56.97;38.00;;;4.90;86.10;;;;;;5114976;27;20031;-78
2020/12/07 03:08:39;;;;;;;56.03;36.93;;;4.90;85.70;;;;;;5116311;27;20031;-79
2020/12/07 03:11:06;;;;;;;56.13;36.47;;;4.80;85.80;;;;;;5095730;28;20035;-78
2020/12/07 03:13:31;;;;;;;53.70;36.00;;;4.80;85.80;;;;;;5114833;28;20595;-79
2020/12/07 03:15:57;;;;;;;55.83;37.33;;;4.90;85.80;;;;;;5131223;27;20059;-78
2020/12/07 03:18:23;;;;;;;59.17;38.83;;;4.80;85.70;;;;;;5134316;27;20043;-78
2020/12/07 03:20:49;;;;;;;53.17;35.90;;;4.80;85.90;;;;;;5116447;27;20118;-78
2020/12/07 03:23:14;;;;;;;54.30;36.33;;;4.90;86.00;;;;;;5113721;27;20080;-79
2020/12/07 03:25:40;;;;;;;55.30;35.90;;;4.90;86.00;;;;;;5087244;28;20118;-78
2020/12/07 03:28:05;;;;;;;51.77;35.17;;;4.90;86.00;;;;;;5132395;27;20414;-79
2020/12/07 03:30:31;;;;;;;51.60;33.20;;;4.90;86.10;;;;;;5116528;27;20075;-78
2020/12/07 03:32:57;;;;;;;48.30;33.73;;;5.00;86.20;;;;;;5115300;27;20023;-79
2020/12/07 03:35:22;;;;;;;46.90;32.57;;;5.00;86.00;;;;;;5116451;27;20099;-78
2020/12/07 03:37:48;;;;;;;48.90;33.80;;;5.00;86.00;;;;;;5099408;28;20028;-78
2020/12/07 03:40:13;;;;;;;49.87;33.47;;;5.00;86.20;;;;;;5087423;27;20035;-79
2020/12/07 03:42:39;;;;;;;48.83;33.47;;;5.10;86.30;;;;;;5095555;28;20437;-79
2020/12/07 03:45:05;;;;;;;48.60;32.83;;;5.10;86.20;;;;;;5110597;28;20466;-79
2020/12/07 03:47:30;;;;;;;50.37;35.10;;;5.10;86.20;;;;;;5095602;28;20471;-78
2020/12/07 03:49:56;;;;;;;52.23;36.13;;;5.20;86.30;;;;;;5116931;27;20031;-78
2020/12/07 03:52:22;;;;;;;51.27;35.27;;;5.20;86.40;;;;;;5086043;27;20031;-79
2020/12/07 03:54:47;;;;;;;47.80;33.77;;;5.20;86.10;;;;;;5141335;27;20035;-79
2020/12/07 03:57:13;;;;;;;56.53;36.67;;;5.20;86.10;;;;;;5142791;27;20047;-80
2020/12/07 03:59:38;;;;;;;50.47;34.67;;;5.20;86.10;;;;;;5117923;27;20023;-79
2020/12/07 04:02:04;;;;;;;48.43;33.27;;;5.20;86.10;;;;;;5097934;27;20023;-78
2020/12/07 04:04:45;;;;;;;54.60;37.53;;;5.20;86.10;;;;;;5096406;27;20459;-79
2020/12/07 04:07:11;;;;;;;54.63;36.47;;;5.10;86.00;;;;;;5106788;27;20031;-79
2020/12/07 04:09:36;;;;;;;53.70;36.13;;;5.10;86.10;;;;;;5098958;27;20072;-79
2020/12/07 04:12:02;;;;;;;60.00;39.50;;;5.10;86.00;;;;;;5097305;27;20123;-79
2020/12/07 04:14:27;;;;;;;53.57;36.60;;;5.10;85.90;;;;;;5115383;27;20043;-79
2020/12/07 04:16:53;;;;;;;56.00;37.00;;;5.00;85.80;;;;;;5097863;27;20053;-79
2020/12/07 04:19:19;;;;;;;51.73;35.43;;;5.00;85.80;;;;;;5115865;27;20027;-79
2020/12/07 04:21:44;;;;;;;54.07;36.27;;;5.00;85.90;;;;;;5133383;27;20462;-79
2020/12/07 04:24:10;;;;;;;53.60;36.23;;;5.00;85.70;;;;;;5098088;27;20027;-80
2020/12/07 04:26:36;;;;;;;54.30;36.07;;;5.00;85.50;;;;;;5114853;27;20039;-80
2020/12/07 04:29:02;;;;;;;55.20;36.43;;;4.90;85.60;;;;;;5114766;27;20023;-79
2020/12/07 04:31:28;;;;;;;53.40;35.67;;;4.90;85.70;;;;;;5114632;27;20027;-79
2020/12/07 04:33:53;;;;;;;55.23;37.47;;;4.90;85.80;;;;;;5093910;28;20024;-80
2020/12/07 04:36:19;;;;;;;62.33;39.60;;;4.90;85.90;;;;;;5127420;27;20063;-79
2020/12/07 04:38:45;;;;;;;56.57;36.27;;;4.90;86.00;;;;;;5097444;27;20035;-81
2020/12/07 04:41:10;;;;;;;56.77;38.27;;;4.90;86.00;;;;;;5096806;27;20068;-79
2020/12/07 04:43:36;;;;;;;55.80;36.43;;;4.90;85.90;;;;;;5098072;27;20379;-79
2020/12/07 04:46:03;;;;;;;57.90;38.10;;;4.90;86.00;;;;;;5133935;27;20608;-80
2020/12/07 04:48:29;;;;;;;60.40;39.10;;;4.90;86.00;;;;;;5096810;27;20027;-80
2020/12/07 04:50:56;;;;;;;63.00;40.67;;;4.80;85.90;;;;;;5114041;27;20070;-80
2020/12/07 04:53:22;;;;;;;62.03;39.47;;;4.80;85.90;;;;;;5113544;27;20026;-79
2020/12/07 04:55:49;;;;;;;59.47;39.07;;;4.80;85.90;;;;;;5113915;27;20042;-79
2020/12/07 04:58:15;;;;;;;57.57;38.57;;;4.80;86.00;;;;;;5095799;28;20039;-80
2020/12/07 05:00:41;;;;;;;53.27;35.20;;;4.90;86.20;;;;;;5081040;27;20046;-79
2020/12/07 05:03:07;;;;;;;52.83;36.63;;;4.90;86.10;;;;;;5114020;27;20033;-80
2020/12/07 05:05:33;;;;;;;57.33;37.20;;;4.90;86.20;;;;;;5097374;27;20039;-79
2020/12/07 05:07:59;;;;;;;54.73;35.93;;;4.90;86.20;;;;;;5112539;27;20023;-79
2020/12/07 05:10:38;;;;;;;55.67;36.63;;;4.90;86.10;;;;;;5114312;27;20019;-79
2020/12/07 05:13:34;;;;;;;54.80;36.37;;;4.90;86.20;;;;;;5112579;27;20640;-80
2020/12/07 05:15:50;;;;;;;56.87;38.73;;;4.90;86.20;;;;;;5095238;28;20127;-80
2020/12/07 05:18:16;;;;;;;58.20;37.03;;;4.80;85.90;;;;;;5111537;27;20023;-80
2020/12/07 05:20:42;;;;;;;54.60;35.30;;;4.80;86.10;;;;;;5113279;27;20239;-79
2020/12/07 05:23:08;;;;;;;51.33;34.13;;;4.80;86.10;;;;;;5111209;27;20039;-78
2020/12/07 05:25:34;;;;;;;56.13;36.40;;;4.80;86.20;;;;;;5132124;27;20031;-78
2020/12/07 05:28:05;;;;;;;54.00;36.90;;;4.90;86.30;;;;;;5091950;28;20483;-78
2020/12/07 05:30:34;;;;;;;52.03;34.37;;;4.90;86.20;;;;;;5094036;27;20016;-78
2020/12/07 05:33:00;;;;;;;50.97;34.93;;;4.90;86.10;;;;;;5114336;27;20123;-79
2020/12/07 05:35:26;;;;;;;48.60;33.63;;;5.00;86.10;;;;;;5093773;28;20123;-78
2020/12/07 05:37:51;;;;;;;52.03;34.30;;;5.00;86.10;;;;;;5126676;27;20039;-78
2020/12/07 05:40:17;;;;;;;48.30;32.87;;;5.00;86.10;;;;;;5114063;27;20019;-79
2020/12/07 05:42:43;;;;;;;47.20;32.23;;;5.10;86.00;;;;;;5113137;27;20039;-78
2020/12/07 05:45:10;;;;;;;49.13;31.77;;;5.10;86.10;;;;;;5132032;27;20058;-79
2020/12/07 05:47:38;;;;;;;48.10;32.40;;;5.10;86.40;;;;;;5113630;28;20019;-78
2020/12/07 05:50:06;;;;;;;52.37;33.43;;;5.10;86.00;;;;;;5109054;28;20035;-78
2020/12/07 05:52:34;;;;;;;46.03;31.17;;;5.10;86.10;;;;;;5124700;27;20061;-78
2020/12/07 05:55:02;;;;;;;48.97;31.47;;;5.10;86.00;;;;;;5112674;27;20125;-77
2020/12/07 05:57:30;;;;;;;46.13;30.27;;;5.10;86.00;;;;;;5130716;28;20047;-78
2020/12/07 06:00:00;;;;;;;47.47;31.93;;;5.10;86.00;;;;;;5128921;28;20031;-79
2020/12/07 06:02:27;;;;;;;46.13;29.87;;;5.20;85.90;;;;;;5110275;28;20024;-78
2020/12/07 06:04:54;;;;;;;47.83;31.73;;;5.20;85.90;;;;;;5110945;28;20544;-78
2020/12/07 06:07:28;;;;;;;47.03;30.70;;;5.10;85.90;;;;;;5101855;28;20065;-77
2020/12/07 06:09:55;;;;;;;47.43;31.77;;;5.10;85.90;;;;;;5111737;28;20141;-78
2020/12/07 06:12:27;;;;;;;47.10;31.40;;;5.10;85.80;;;;;;5097363;28;20352;-78
2020/12/07 06:14:53;;;;;;;50.23;31.87;;;5.10;86.00;;;;;;5131481;28;20027;-79
2020/12/07 06:17:30;;;;;;;48.17;31.73;;;5.10;86.00;;;;;;5112387;27;20027;-77
2020/12/07 06:19:56;;;;;;;49.77;33.40;;;5.00;85.80;;;;;;5100302;27;20035;-77
2020/12/07 06:22:22;;;;;;;49.50;33.57;;;5.00;86.10;;;;;;5108325;27;20387;-78
2020/12/07 06:24:51;;;;;;;52.37;33.20;;;5.00;86.00;;;;;;5117605;27;20031;-77
2020/12/07 06:27:17;;;;;;;55.83;36.13;;;5.10;86.20;;;;;;5117904;27;20031;-78
2020/12/07 06:30:05;;;;;;;53.27;33.33;;;5.10;86.20;;;;;;5117609;27;20382;-78
2020/12/07 06:32:51;;;;;;;58.00;37.57;;;5.10;86.20;;;;;;5133899;27;20075;-78
2020/12/07 06:35:17;;;;;;;57.50;36.73;;;5.10;86.20;;;;;;5117187;27;20063;-78
2020/12/07 06:37:50;;;;;;;58.03;38.03;;;5.00;86.40;;;;;;5135486;27;20031;-78
2020/12/07 06:40:17;;;;;;;;;;;5.00;86.20;;;;;;5101140;27;20034;-78
2020/12/07 06:42:44;;;;;;;60.33;37.13;;;4.90;86.10;;;;;;5134494;27;19971;-78
2020/12/07 06:45:21;;;;;;;60.53;39.67;;;4.90;86.10;;;;;;5135332;27;20029;-78
2020/12/07 06:47:48;;;;;;;63.03;39.10;;;4.90;86.30;;;;;;5117105;27;20030;-78
2020/12/07 06:50:17;;;;;;;66.93;39.97;;;4.90;86.30;;;;;;5117240;27;20027;-78
2020/12/07 06:52:44;;;;;;;66.30;40.10;;;4.90;86.20;;;;;;5123359;27;20459;-78
2020/12/07 06:55:12;;;;;;;67.73;40.67;;;5.00;86.40;;;;;;5115736;27;20031;-79
2020/12/07 06:57:46;;;;;;;65.80;40.97;;;5.00;86.10;;;;;;5113417;28;20104;-77
2020/12/07 07:00:23;;;;;;;64.93;39.90;;;4.90;86.20;;;;;;5095277;28;20020;-77
2020/12/07 07:02:54;;;;;;;67.33;39.67;;;4.90;86.30;;;;;;5112152;28;20490;-78
2020/12/07 07:05:24;;;;;;;67.33;42.50;;;4.90;86.30;;;;;;5113512;28;20020;-79
2020/12/07 07:07:51;;;;;;;68.67;41.60;;;4.90;86.40;;;;;;5114437;28;20020;-78
2020/12/07 07:10:17;;;;;;;68.60;42.80;;;5.00;86.40;;;;;;5094477;28;20024;-77
2020/12/07 07:12:44;;;;;;;69.47;41.23;;;4.90;86.30;;;;;;5076635;28;20035;-79
2020/12/07 07:15:10;;;;;;;73.17;42.47;;;4.90;86.20;;;;;;5112778;28;20081;-79
2020/12/07 07:17:39;;;;;;;73.03;41.63;;;4.80;86.10;;;;;;5111810;27;20238;-78
2020/12/07 07:20:10;;;;;;;75.97;43.97;;;4.90;86.60;;;;;;5096339;27;20390;-79
2020/12/07 07:22:39;;;;;;;79.43;46.13;;;4.90;86.50;;;;;;5108463;27;20030;-79
2020/12/07 07:30:15;;;;;;;72.20;42.73;;;4.80;86.50;;;;;;5106173;28;20145;-79
2020/12/07 07:32:42;;;;;;;76.20;43.70;;;5.00;86.70;;;;;;5106873;28;20423;-77
2020/12/07 07:35:13;;;;;;;81.77;46.63;;;4.90;86.50;;;;;;5112897;28;20489;-78
2020/12/07 07:37:39;;;;;;;80.57;45.30;;;5.00;86.60;;;;;;5111562;28;20027;-78
2020/12/07 07:40:17;;;;;;;80.70;44.23;;;5.00;86.40;;;;;;5128709;27;20027;-78
2020/12/07 07:42:58;;;;;;;76.27;43.90;;;5.00;86.30;;;;;;5113994;27;20045;-79
2020/12/07 07:45:31;;;;;;;84.90;45.70;;;5.00;86.40;;;;;;5111189;28;20036;-78
2020/12/07 07:48:15;;;;;;;80.93;44.92;;;4.90;86.20;;;;;;5110328;27;20098;-80
2020/12/07 07:52:14;;;;;;;89.57;49.70;;;5.00;86.50;;;;;;5112061;27;20027;-77
2020/12/07 08:15:41;;;;;;;100.87;53.23;;;5.00;86.30;;;;;;5118896;28;20513;-79
2020/12/07 08:18:07;;;;;;;95.67;52.67;;;5.10;86.20;;;;;;5120076;28;20476;-79
2020/12/07 08:20:37;;;;;;;100.80;55.27;;;5.00;85.70;;;;;;5110507;28;20035;-79
2020/12/07 08:23:05;;;;;;;93.17;51.00;;;5.00;85.80;;;;;;5072040;28;20028;-78
2020/12/07 08:25:49;;;;;;;88.50;50.13;;;4.90;85.80;;;;;;5109607;28;20035;-79
2020/12/07 08:28:25;;;;;;;87.30;51.67;;;4.80;85.70;;;;;;5101051;28;20024;-79
2020/12/07 08:31:13;;;;;;;90.83;52.03;;;4.80;85.80;;;;;;5097543;28;20028;-79
2020/12/07 08:34:09;;;;;;;95.57;54.60;;;4.80;85.90;;;;;;5112206;28;20042;-78
2020/12/07 08:36:35;;;;;;;92.80;53.00;;;4.80;86.00;;;;;;5111532;28;20035;-80
2020/12/07 08:39:01;;;;;;;93.33;52.67;;;4.80;86.10;;;;;;5110256;28;20485;-80
2020/12/07 08:41:29;;;;;;;103.57;56.33;;;4.80;85.80;;;;;;5111634;28;20028;-79
2020/12/07 08:44:07;;;;;;;104.23;56.00;;;4.80;86.00;;;;;;5111095;28;20035;-80
2020/12/07 08:46:35;;;;;;;93.00;53.23;;;4.90;86.20;;;;;;5112052;27;20024;-79
2020/12/07 08:49:01;;;;;;;98.07;55.00;;;4.90;85.60;;;;;;5094112;28;20130;-79
2020/12/07 08:51:29;;;;;;;96.93;55.37;;;4.90;85.60;;;;;;5113395;28;20015;-79
2020/12/07 08:53:55;;;;;;;91.47;49.43;;;4.90;85.70;;;;;;5104996;28;20024;-79
2020/12/07 08:56:21;;;;;;;92.67;52.47;;;4.80;85.60;;;;;;5103490;27;20136;-78
2020/12/07 08:58:47;;;;;;;97.37;53.73;;;4.80;85.70;;;;;;5100557;27;20380;-78
2020/12/07 09:01:13;;;;;;;100.50;56.30;;;4.80;85.90;;;;;;5101402;28;20039;-79
2020/12/07 09:03:42;;;;;;;98.07;54.93;;;4.80;86.00;;;;;;5103769;28;20425;-78
2020/12/07 09:06:09;;;;;;;102.10;57.77;;;4.80;86.00;;;;;;5101271;28;20027;-79
2020/12/07 09:08:35;;;;;;;91.67;54.60;;;4.80;86.00;;;;;;5103026;28;20459;-78
2020/12/07 09:11:05;;;;;;;89.83;52.80;;;4.80;86.00;;;;;;5104786;28;20184;-79
2020/12/07 09:13:31;;;;;;;90.00;51.83;;;4.90;86.50;;;;;;5102305;28;20479;-78
2020/12/07 09:15:56;;;;;;;97.43;54.13;;;4.90;86.00;;;;;;5071755;28;20032;-78
2020/12/07 09:18:22;;;;;;;98.30;56.60;;;4.90;85.60;;;;;;5112550;27;20118;-77
2020/12/07 09:20:48;;;;;;;98.33;55.90;;;4.90;85.80;;;;;;5112260;27;20512;-77
2020/12/07 09:23:14;;;;;;;106.47;59.17;;;4.90;85.50;;;;;;5105054;28;20031;-78
2020/12/07 09:25:40;;;;;;;111.10;63.50;;;5.00;85.90;;;;;;5093342;28;20035;-77
2020/12/07 09:28:05;;;;;;;104.33;60.47;;;5.00;85.70;;;;;;5106308;27;20089;-77
2020/12/07 09:30:32;;;;;;;104.03;59.03;;;5.10;86.00;;;;;;5092453;28;20107;-77
2020/12/07 09:32:57;;;;;;;104.20;59.83;;;5.20;85.90;;;;;;5109399;28;20066;-77
2020/12/07 09:35:23;;;;;;;97.97;56.93;;;5.20;85.70;;;;;;5110618;28;20462;-78
2020/12/07 09:37:49;;;;;;;117.57;59.87;;;5.10;85.50;;;;;;5110376;28;20502;-78
2020/12/07 09:40:14;;;;;;;110.47;58.87;;;5.20;85.70;;;;;;5110671;28;20524;-78
2020/12/07 09:42:41;;;;;;;114.43;61.57;;;5.20;85.70;;;;;;5110640;28;20114;-77
2020/12/07 09:45:08;;;;;;;103.20;57.60;;;5.30;85.70;;;;;;5086300;28;20056;-79
2020/12/07 09:47:34;;;;;;;106.27;59.03;;;5.20;85.60;;;;;;5110904;28;20032;-79
2020/12/07 09:50:05;;;;;;;106.00;59.43;;;5.20;85.40;;;;;;5092471;28;20024;-80
2020/12/07 09:52:30;;;;;;;97.90;55.13;;;5.20;85.50;;;;;;5099870;28;20020;-79
2020/12/07 09:54:56;;;;;;;92.50;52.37;;;5.20;85.30;;;;;;5089419;28;20383;-79
2020/12/07 09:57:21;;;;;;;100.27;54.97;;;5.20;85.30;;;;;;5095142;28;20051;-80
2020/12/07 09:59:49;;;;;;;101.97;57.13;;;5.10;84.90;;;;;;5111259;28;20034;-79
2020/12/07 10:02:15;;;;;;;99.97;56.30;;;5.00;85.20;;;;;;5113449;28;20024;-80
2020/12/07 10:04:42;;;;;;;94.30;54.20;;;5.00;85.30;;;;;;5128882;28;20039;-80
2020/12/07 10:07:08;;;;;;;97.20;55.23;;;5.00;85.20;;;;;;5129774;28;20041;-80
2020/12/07 10:09:33;;;;;;;99.33;53.43;;;5.00;85.00;;;;;;5129414;28;20059;-79
2020/12/07 10:11:59;;;;;;;98.37;56.73;;;5.00;85.20;;;;;;5093570;28;20487;-79
2020/12/07 10:14:25;;;;;;;95.83;54.70;;;4.90;85.30;;;;;;5086764;28;20039;-79
2020/12/07 10:16:50;;;;;;;93.70;53.17;;;5.00;85.20;;;;;;5111009;28;20467;-79
2020/12/07 10:19:16;;;;;;;102.53;57.07;;;4.90;85.30;;;;;;5111599;28;20028;-79
2020/12/07 10:21:41;;;;;;;96.80;53.80;;;5.00;85.40;;;;;;5093618;28;20055;-79
2020/12/07 10:24:07;;;;;;;91.53;53.33;;;5.00;85.20;;;;;;5102571;28;20510;-79
2020/12/07 10:26:33;;;;;;;91.57;52.17;;;5.00;84.90;;;;;;5077066;28;20081;-79
2020/12/07 10:29:00;;;;;;;95.70;53.33;;;5.00;85.10;;;;;;5099280;28;20166;-79
2020/12/07 10:31:26;;;;;;;93.57;54.57;;;5.10;85.20;;;;;;5093673;28;20034;-79
2020/12/07 10:33:52;;;;;;;98.37;57.83;;;5.20;85.30;;;;;;5093909;28;20463;-79
2020/12/07 10:36:20;;;;;;;88.33;50.23;;;5.20;85.00;;;;;;5073997;28;20387;-80
2020/12/07 10:38:47;;;;;;;101.13;56.43;;;5.30;85.00;;;;;;5076533;28;20392;-79
2020/12/07 10:41:13;;;;;;;90.27;49.87;;;5.30;84.80;;;;;;5092178;28;20016;-77
2020/12/07 10:43:40;;;;;;;93.47;53.30;;;5.30;84.50;;;;;;5093611;28;20035;-78
2020/12/07 10:46:06;;;;;;;94.90;54.47;;;5.20;84.00;;;;;;5092372;28;20032;-81
2020/12/07 10:48:33;;;;;;;87.40;50.80;;;5.30;84.70;;;;;;5108926;28;20446;-79
2020/12/07 10:50:58;;;;;;;84.27;48.10;;;5.30;84.60;;;;;;5098905;28;20028;-80
2020/12/07 10:53:24;;;;;;;91.27;50.17;;;5.30;84.60;;;;;;5083458;28;20127;-79
2020/12/07 10:55:50;;;;;;;92.63;50.87;;;5.30;84.70;;;;;;5090092;28;20472;-77
2020/12/07 10:58:17;;;;;;;90.67;52.83;;;5.30;84.60;;;;;;5118118;28;20035;-78
2020/12/07 11:00:42;;;;;;;82.83;47.47;;;5.40;84.90;;;;;;5112997;28;20367;-79
2020/12/07 11:03:08;;;;;;;84.83;48.83;;;5.40;84.60;;;;;;5113611;28;20042;-79
2020/12/07 11:05:34;;;;;;;83.83;48.63;;;5.40;84.40;;;;;;5098550;27;20031;-78
2020/12/07 11:08:01;;;;;;;86.93;51.97;;;5.40;84.30;;;;;;5136000;27;20034;-79
2020/12/07 11:10:26;;;;;;;85.07;50.30;;;5.50;84.60;;;;;;5134779;27;20180;-79
2020/12/07 11:13:04;;;;;;;86.80;48.70;;;5.60;84.60;;;;;;5135631;27;20450;-80
2020/12/07 11:15:29;;;;;;;86.63;46.97;;;5.50;83.90;;;;;;5134987;27;20493;-79
2020/12/07 11:17:55;;;;;;;88.33;48.87;;;5.60;84.30;;;;;;5085495;28;20044;-80
2020/12/07 11:20:20;;;;;;;86.00;49.57;;;5.70;84.60;;;;;;5079105;28;20027;-80
2020/12/07 11:22:46;;;;;;;82.90;47.77;;;5.80;85.10;;;;;;5115004;27;20027;-79
2020/12/07 11:25:12;;;;;;;84.70;47.30;;;5.80;84.60;;;;;;5115977;27;20035;-79
2020/12/07 11:27:37;;;;;;;77.43;45.10;;;5.70;83.90;;;;;;5117331;27;20027;-80
2020/12/07 11:30:03;;;;;;;85.73;49.37;;;5.60;84.40;;;;;;5111230;27;20023;-80
2020/12/07 11:32:29;;;;;;;81.77;46.93;;;5.60;84.10;;;;;;5099076;27;20031;-78
2020/12/07 11:34:54;;;;;;;75.37;44.50;;;5.70;84.30;;;;;;5099948;27;20038;-79
2020/12/07 11:37:20;;;;;;;80.17;44.43;;;5.60;83.90;;;;;;5111069;27;20526;-79
2020/12/07 11:44:37;;;;;;;76.43;43.50;;;5.70;84.00;;;;;;5102787;27;20074;-79
2020/12/07 11:47:06;;;;;;;80.73;45.43;;;5.70;84.00;;;;;;5093045;27;20062;-79
2020/12/07 11:49:32;;;;;;;80.63;44.73;;;5.80;84.30;;;;;;5130024;27;20509;-78
2020/12/07 11:52:05;;;;;;;82.17;43.77;;;5.80;83.70;;;;;;5111064;27;20019;-79
2020/12/07 11:54:31;;;;;;;;;;;5.70;83.30;;;;;;5122557;27;20026;-79
2020/12/07 11:56:56;;;;;;;79.27;43.87;;;5.70;83.40;;;;;;5106378;27;19994;-79
2020/12/07 11:59:22;;;;;;;75.03;43.93;;;5.70;83.30;;;;;;5102062;28;20028;-78
2020/12/07 12:01:48;;;;;;;81.30;44.17;;;5.70;83.10;;;;;;5104777;27;20027;-79
2020/12/07 12:04:14;;;;;;;75.50;44.00;;;5.70;83.00;;;;;;5130169;27;20029;-79
2020/12/07 12:06:39;;;;;;;74.93;44.20;;;5.60;83.00;;;;;;5123406;27;20051;-78
2020/12/07 12:09:09;;;;;;;71.67;42.00;;;5.70;83.40;;;;;;5119087;27;20481;-79
2020/12/07 12:11:36;;;;;;;70.97;42.03;;;5.70;83.20;;;;;;5125104;27;20064;-79
2020/12/07 12:14:03;;;;;;;77.17;44.03;;;5.70;83.20;;;;;;5103259;27;20031;-79
2020/12/07 12:16:29;;;;;;;81.20;43.90;;;5.70;83.50;;;;;;5087729;27;20065;-78
2020/12/07 12:18:55;;;;;;;72.13;43.60;;;5.80;83.40;;;;;;5105159;27;20043;-79
2020/12/07 12:21:23;;;;;;;78.87;45.03;;;5.80;83.30;;;;;;5085465;27;20844;-79
2020/12/07 12:23:49;;;;;;;78.60;45.03;;;5.70;82.90;;;;;;5115788;27;20031;-79
2020/12/07 12:26:15;;;;;;;73.87;42.57;;;5.80;83.10;;;;;;5133059;27;20062;-80
2020/12/07 12:28:41;;;;;;;75.33;42.37;;;5.80;82.70;;;;;;5132168;27;20050;-79
2020/12/07 12:31:07;;;;;;;74.67;44.33;;;5.90;83.20;;;;;;5114282;27;20077;-79
2020/12/07 12:33:32;;;;;;;75.10;42.37;;;6.00;82.70;;;;;;5095490;27;20024;-79
2020/12/07 12:35:58;;;;;;;71.70;43.30;;;6.10;82.70;;;;;;5124432;27;20035;-79
2020/12/07 12:38:24;;;;;;;72.63;42.27;;;6.10;82.30;;;;;;5085567;28;20182;-79
2020/12/07 12:40:51;;;;;;;72.00;42.03;;;6.10;82.40;;;;;;5095228;27;20114;-80
2020/12/07 12:43:16;;;;;;;74.63;42.57;;;6.30;82.80;;;;;;5100570;27;20463;-79
2020/12/07 12:45:42;;;;;;;69.30;40.70;;;6.40;82.60;;;;;;5115380;27;20026;-79
2020/12/07 12:48:07;;;;;;;68.27;42.33;;;6.30;81.90;;;;;;5127547;27;20024;-77
2020/12/07 12:50:34;;;;;;;73.17;43.77;;;6.30;82.00;;;;;;5118204;27;20031;-77
2020/12/07 12:53:00;;;;;;;67.93;39.87;;;6.20;81.30;;;;;;5104457;27;20076;-79
2020/12/07 12:55:26;;;;;;;69.03;40.60;;;6.20;82.20;;;;;;5108147;27;20121;-79
2020/12/07 12:57:52;;;;;;;71.93;41.10;;;6.20;82.20;;;;;;5102357;27;20050;-77
2020/12/07 13:00:17;;;;;;;70.83;42.63;;;6.40;82.40;;;;;;5114287;27;20034;-77
2020/12/07 13:02:43;;;;;;;66.07;40.30;;;6.40;82.30;;;;;;5091092;28;20412;-77
2020/12/07 13:05:09;;;;;;;72.80;40.87;;;6.40;82.20;;;;;;5085624;27;20028;-77
2020/12/07 13:07:34;;;;;;;68.57;40.73;;;6.40;82.20;;;;;;5110750;27;20026;-76